Amunt
Inicio > meteoXarxa
Fes-te'n soci

METEOXARXA

Castelló de la Plana
Ubicació UJI
Comarca la Plana Alta
Altitud (msnm) 78
Posició geogràfica 40° 0' 1.08" N, 00° 6' 2.52" W
Model Davis Vantage Pro
Presa de dades
Font de les dades Universitat Jaume I de Castelló
Estadístiques. Resum
Data Temperatura (ºC) Humitat (%) Pressió (hPa) Vent (km/h) Precipit. (mm)
Mínima Mitjana Màxima Mínima Mitjana Màxima Mínima Mitjana Màxima Predom. Mitjana Ràfega màxima Total Dies de pluja
Mínima Mitjana Màxima Mínima Mitjana Màxima
Últimes dades diàries
25-03-2017 4,7     12,6     18,9 SW 4,0 27,4 0,0  
24-03-2017 6,7     10,4     14,3 WSW 4,5 19,3 2,3  
23-03-2017 9,3     12,7     15,6 WSW 4,5 24,1 0,0  
22-03-2017 7,9     14,6     20,7 WSW 3,7 22,5 0,0  
21-03-2017 8,7     13,2     17,5 ENE 2,7 19,3 0,0  
20-03-2017 8,2     13,0     18,6 ENE 1,9 12,9 0,0  
19-03-2017 7,5     13,6     18,5 ENE 2,1 11,3 0,0  
18-03-2017 4,5     12,4     20,1 E 3,7 17,7 0,0  
17-03-2017 4,9     11,8     18,3 WSW 3,4 14,5 0,0  
16-03-2017 6,7     12,6     17,9 ENE 2,3 9,7 0,0  
15-03-2017 10,3     15,1     18,7 ENE 3,2 17,7 0,0  
14-03-2017 11,7     15,3     19,1 N 4,0 27,4 0,0  
13-03-2017 8,9     12,3     15,3 NE 6,0 37,0 17,3  
12-03-2017 9,6     14,6     20,3 E 5,0 61,2 11,2  
11-03-2017 8,9     14,1     18,5 NE 1,9 12,9 0,0  
10-03-2017 10,6     17,1     21,9 ENE 3,7 16,1 0,0  
09-03-2017 9,8     17,0     25,2 WSW 4,2 16,1 0,0  
08-03-2017 10,0     15,9     20,1 ESE 3,5 17,7 0,0  
07-03-2017 10,8     17,3     22,2 WSW 3,5 14,5 0,0  
06-03-2017 13,1     18,6     25,4 WSW 6,1 38,6 0,0  
05-03-2017 7,2     13,8     18,4 SW 5,0 17,7 0,0  
04-03-2017 6,9     11,2     15,5 SW 5,6 32,2 0,0  
03-03-2017 7,1     11,6     14,4 NNE 3,2 38,6 7,6  
02-03-2017 7,5     12,5     17,9 E 1,9 11,3 0,0  
28-02-2017 10,2     15,0     19,9 SW 6,0 27,4 0,0  
27-02-2017 6,8     11,3     15,5 ENE 2,3 12,9 0,3  
26-02-2017 6,8     11,9     16,0 NNE 1,8 11,3 0,0  
25-02-2017 4,3     10,6     14,4 NW 3,4 17,7 0,0  
24-02-2017 7,6     12,1     14,8 NNE 2,3 17,7 5,6  
23-02-2017 9,9     13,8     18,5 NE 2,9 14,5 0,0  
22-02-2017 5,4     12,1     18,3 SSW 3,2 14,5 0,0  
21-02-2017 4,9     10,8     18,2 ESE 4,5 16,1 0,0  
Dades del mes en curs (actualitzades fins l'últim dia disponible)
03/2017 4,5 8,4 13,1 13,9 14,3 18,9 25,4   3,7 61,2 38,4  
Últimes dades mensuals
02/2017 4,3 7,8 13,5 12,4 12,9 16,7 22,6 3,7 75,6 22,6 8
01/2017 2,2 5,4 9,4 10,0 9,0 14,2 18,6 3,8 54,7 199,2 7
12/2016 2,2 7,9 14,9 11,9 12,0 16,3 18,9 3,2 43,5 116,5 11
11/2016 5,0 9,9 16,1 14,3 13,3 18,6 25,0 3,2 41,8 130,0 12
10/2016 10,7 15,9 19,3 19,7 19,1 23,3 26,2 2,7 25,7 33,0 11
09/2016 14,0 18,5 24,1 23,3 24,6 27,6 33,2 1,3 41,8 69,6 4
08/2016 17,1 21,0 23,9 25,2 24,9 28,8 32,6 1,4 30,6 8,4 2
07/2016 17,3 21,1 23,1 25,5 25,2 28,9 31,6 2,0 32,2 1,8 2
06/2016 12,3 17,9 22,0 22,7 23,3 26,7 32,4 2,6 37,0 2,0 1
05/2016 7,3 13,5 17,9 17,9 17,2 21,7 28,0 3,9 43,5
12/2015 5,7 8,3 12,2 12,6 15,5 17,1 20,2 1,2 19,3 0,0 0
11/2015 3,1 10,3 16,1 15,1 13,5 19,7 23,8 2,5 59,5 12,4 1
10/2015 8,7 14,3 20,2 18,3 18,3 22,1 31,7 2,2 35,4 32,8 12
Dades de l'any en curs (actualitzades fins l'últim dia disponible)
2017 2,2 7,1 13,5 11,9 9,0 16,4 25,4   3,7 75,6 260,2  
Últimes dades anuals
2015 0,8 13,2 20,4 17,8 20,2 22,1 35,9 4,1 67,6 513,8 48